sensor_id;sensor_type;location;lat;lon;timestamp;P1;durP1;ratioP1;P2;durP2;ratioP2
79401;SDS011;68857;47.916;106.940;2023-04-25T00:01:39;14.77;;;7.38;;
79401;SDS011;68857;47.916;106.940;2023-04-25T00:04:06;14.60;;;7.57;;
79401;SDS011;68857;47.916;106.940;2023-04-25T00:06:36;16.38;;;9.38;;
79401;SDS011;68857;47.916;106.940;2023-04-25T00:09:03;16.83;;;7.25;;
79401;SDS011;68857;47.916;106.940;2023-04-25T00:11:33;17.90;;;10.85;;
79401;SDS011;68857;47.916;106.940;2023-04-25T00:13:59;15.98;;;6.60;;
79401;SDS011;68857;47.916;106.940;2023-04-25T00:16:28;15.93;;;9.40;;
79401;SDS011;68857;47.916;106.940;2023-04-25T00:18:58;19.15;;;10.13;;
79401;SDS011;68857;47.916;106.940;2023-04-25T00:21:25;20.42;;;10.10;;
79401;SDS011;68857;47.916;106.940;2023-04-25T00:23:53;21.77;;;10.00;;
79401;SDS011;68857;47.916;106.940;2023-04-25T00:26:20;22.13;;;11.10;;
79401;SDS011;68857;47.916;106.940;2023-04-25T00:28:47;17.17;;;10.18;;
79401;SDS011;68857;47.916;106.940;2023-04-25T00:31:13;18.08;;;8.73;;
79401;SDS011;68857;47.916;106.940;2023-04-25T00:33:40;16.15;;;7.72;;
79401;SDS011;68857;47.916;106.940;2023-04-25T00:36:07;15.60;;;10.27;;
79401;SDS011;68857;47.916;106.940;2023-04-25T00:38:34;17.10;;;8.23;;
79401;SDS011;68857;47.916;106.940;2023-04-25T00:41:01;19.90;;;9.30;;
79401;SDS011;68857;47.916;106.940;2023-04-25T00:43:27;18.58;;;9.45;;
79401;SDS011;68857;47.916;106.940;2023-04-25T00:45:54;16.90;;;8.30;;
79401;SDS011;68857;47.916;106.940;2023-04-25T00:48:22;14.77;;;8.90;;
79401;SDS011;68857;47.916;106.940;2023-04-25T00:50:53;15.18;;;8.13;;
79401;SDS011;68857;47.916;106.940;2023-04-25T00:53:24;16.30;;;7.10;;
79401;SDS011;68857;47.916;106.940;2023-04-25T00:55:51;17.77;;;9.02;;
79401;SDS011;68857;47.916;106.940;2023-04-25T00:58:18;16.33;;;7.75;;
79401;SDS011;68857;47.916;106.940;2023-04-25T01:00:45;17.95;;;10.52;;
79401;SDS011;68857;47.916;106.940;2023-04-25T01:03:12;15.15;;;7.78;;
79401;SDS011;68857;47.916;106.940;2023-04-25T01:05:40;17.27;;;9.77;;
79401;SDS011;68857;47.916;106.940;2023-04-25T01:08:07;17.33;;;8.07;;
79401;SDS011;68857;47.916;106.940;2023-04-25T01:10:34;18.35;;;9.90;;
79401;SDS011;68857;47.916;106.940;2023-04-25T01:13:00;15.57;;;8.18;;
79401;SDS011;68857;47.916;106.940;2023-04-25T01:15:27;15.95;;;8.25;;
79401;SDS011;68857;47.916;106.940;2023-04-25T01:17:54;16.67;;;8.15;;
79401;SDS011;68857;47.916;106.940;2023-04-25T01:20:21;17.88;;;9.52;;
79401;SDS011;68857;47.916;106.940;2023-04-25T01:22:48;20.00;;;9.07;;
79401;SDS011;68857;47.916;106.940;2023-04-25T01:25:15;22.77;;;9.50;;
79401;SDS011;68857;47.916;106.940;2023-04-25T01:27:42;21.35;;;10.98;;
79401;SDS011;68857;47.916;106.940;2023-04-25T01:30:09;22.77;;;10.52;;
79401;SDS011;68857;47.916;106.940;2023-04-25T01:32:35;16.15;;;10.38;;
79401;SDS011;68857;47.916;106.940;2023-04-25T01:35:09;22.38;;;11.23;;
79401;SDS011;68857;47.916;106.940;2023-04-25T01:37:37;17.80;;;9.10;;
79401;SDS011;68857;47.916;106.940;2023-04-25T01:40:03;21.40;;;10.85;;
79401;SDS011;68857;47.916;106.940;2023-04-25T01:42:31;16.92;;;9.43;;
79401;SDS011;68857;47.916;106.940;2023-04-25T01:44:58;26.70;;;9.65;;
79401;SDS011;68857;47.916;106.940;2023-04-25T01:47:24;21.98;;;11.52;;
79401;SDS011;68857;47.916;106.940;2023-04-25T01:49:51;19.88;;;8.98;;
79401;SDS011;68857;47.916;106.940;2023-04-25T01:52:17;18.92;;;9.90;;
79401;SDS011;68857;47.916;106.940;2023-04-25T01:54:44;20.10;;;10.07;;
79401;SDS011;68857;47.916;106.940;2023-04-25T01:57:11;21.38;;;9.35;;
79401;SDS011;68857;47.916;106.940;2023-04-25T01:59:38;23.67;;;8.70;;
79401;SDS011;68857;47.916;106.940;2023-04-25T02:02:05;14.88;;;8.35;;
79401;SDS011;68857;47.916;106.940;2023-04-25T02:04:32;21.77;;;9.98;;
79401;SDS011;68857;47.916;106.940;2023-04-25T02:06:58;17.45;;;7.93;;
79401;SDS011;68857;47.916;106.940;2023-04-25T02:09:25;14.40;;;7.78;;
79401;SDS011;68857;47.916;106.940;2023-04-25T02:11:52;16.30;;;8.75;;
79401;SDS011;68857;47.916;106.940;2023-04-25T02:14:19;16.02;;;9.85;;
79401;SDS011;68857;47.916;106.940;2023-04-25T02:16:45;14.23;;;7.32;;
79401;SDS011;68857;47.916;106.940;2023-04-25T02:19:12;20.15;;;9.63;;
79401;SDS011;68857;47.916;106.940;2023-04-25T02:21:39;17.35;;;8.23;;
79401;SDS011;68857;47.916;106.940;2023-04-25T02:24:05;18.10;;;7.43;;
79401;SDS011;68857;47.916;106.940;2023-04-25T02:26:32;18.67;;;8.63;;
79401;SDS011;68857;47.916;106.940;2023-04-25T02:28:58;19.10;;;6.90;;
79401;SDS011;68857;47.916;106.940;2023-04-25T02:31:26;13.10;;;7.32;;
79401;SDS011;68857;47.916;106.940;2023-04-25T02:33:53;15.63;;;6.20;;
79401;SDS011;68857;47.916;106.940;2023-04-25T02:36:20;15.05;;;8.00;;
79401;SDS011;68857;47.916;106.940;2023-04-25T02:38:46;13.13;;;7.53;;
79401;SDS011;68857;47.916;106.940;2023-04-25T02:41:13;13.13;;;6.45;;
79401;SDS011;68857;47.916;106.940;2023-04-25T02:43:39;16.45;;;6.70;;
79401;SDS011;68857;47.916;106.940;2023-04-25T02:46:06;12.07;;;6.13;;
79401;SDS011;68857;47.916;106.940;2023-04-25T02:48:33;16.58;;;7.93;;
79401;SDS011;68857;47.916;106.940;2023-04-25T02:50:59;18.77;;;5.60;;
79401;SDS011;68857;47.916;106.940;2023-04-25T02:53:25;16.48;;;5.97;;
79401;SDS011;68857;47.916;106.940;2023-04-25T02:55:52;16.80;;;7.05;;
79401;SDS011;68857;47.916;106.940;2023-04-25T02:58:18;15.38;;;7.60;;
79401;SDS011;68857;47.916;106.940;2023-04-25T03:00:45;18.60;;;6.70;;
79401;SDS011;68857;47.916;106.940;2023-04-25T03:03:11;18.58;;;6.22;;
79401;SDS011;68857;47.916;106.940;2023-04-25T03:05:38;21.92;;;7.68;;
79401;SDS011;68857;47.916;106.940;2023-04-25T03:08:05;16.15;;;7.15;;
79401;SDS011;68857;47.916;106.940;2023-04-25T03:10:31;20.75;;;6.00;;
79401;SDS011;68857;47.916;106.940;2023-04-25T03:12:58;19.63;;;5.95;;
79401;SDS011;68857;47.916;106.940;2023-04-25T03:15:25;17.48;;;6.63;;
79401;SDS011;68857;47.916;106.940;2023-04-25T03:17:51;14.90;;;5.15;;
79401;SDS011;68857;47.916;106.940;2023-04-25T03:20:18;17.63;;;6.85;;
79401;SDS011;68857;47.916;106.940;2023-04-25T03:22:45;15.68;;;5.07;;
79401;SDS011;68857;47.916;106.940;2023-04-25T03:25:11;13.68;;;4.95;;
79401;SDS011;68857;47.916;106.940;2023-04-25T03:27:38;14.52;;;4.82;;
79401;SDS011;68857;47.916;106.940;2023-04-25T03:30:05;11.35;;;4.50;;
79401;SDS011;68857;47.916;106.940;2023-04-25T03:32:33;10.18;;;5.10;;
79401;SDS011;68857;47.916;106.940;2023-04-25T03:35:00;8.93;;;3.13;;
79401;SDS011;68857;47.916;106.940;2023-04-25T03:37:26;7.43;;;4.30;;
79401;SDS011;68857;47.916;106.940;2023-04-25T03:39:53;11.07;;;4.63;;
79401;SDS011;68857;47.916;106.940;2023-04-25T03:42:19;6.88;;;3.30;;
79401;SDS011;68857;47.916;106.940;2023-04-25T03:44:48;7.95;;;2.97;;
79401;SDS011;68857;47.916;106.940;2023-04-25T03:47:15;8.52;;;2.83;;
79401;SDS011;68857;47.916;106.940;2023-04-25T03:49:41;5.63;;;3.20;;
79401;SDS011;68857;47.916;106.940;2023-04-25T03:52:08;9.48;;;3.42;;
79401;SDS011;68857;47.916;106.940;2023-04-25T03:54:34;7.50;;;2.88;;
79401;SDS011;68857;47.916;106.940;2023-04-25T03:57:01;7.15;;;3.38;;
79401;SDS011;68857;47.916;106.940;2023-04-25T03:59:27;8.75;;;2.83;;
79401;SDS011;68857;47.916;106.940;2023-04-25T04:01:54;8.40;;;2.13;;
79401;SDS011;68857;47.916;106.940;2023-04-25T04:04:21;6.43;;;2.10;;
79401;SDS011;68857;47.916;106.940;2023-04-25T04:06:47;5.40;;;3.15;;
79401;SDS011;68857;47.916;106.940;2023-04-25T04:09:14;6.50;;;2.17;;
79401;SDS011;68857;47.916;106.940;2023-04-25T04:11:41;8.30;;;1.80;;
79401;SDS011;68857;47.916;106.940;2023-04-25T04:14:08;3.97;;;2.55;;
79401;SDS011;68857;47.916;106.940;2023-04-25T04:16:35;5.28;;;2.88;;
79401;SDS011;68857;47.916;106.940;2023-04-25T04:19:02;4.05;;;2.20;;
79401;SDS011;68857;47.916;106.940;2023-04-25T04:21:28;3.33;;;1.65;;
79401;SDS011;68857;47.916;106.940;2023-04-25T04:23:55;4.47;;;1.85;;
79401;SDS011;68857;47.916;106.940;2023-04-25T04:26:23;5.93;;;1.80;;
79401;SDS011;68857;47.916;106.940;2023-04-25T04:28:49;4.97;;;1.67;;
79401;SDS011;68857;47.916;106.940;2023-04-25T04:31:17;2.38;;;1.58;;
79401;SDS011;68857;47.916;106.940;2023-04-25T04:33:45;4.45;;;1.23;;
79401;SDS011;68857;47.916;106.940;2023-04-25T04:36:12;4.95;;;1.80;;
79401;SDS011;68857;47.916;106.940;2023-04-25T04:38:39;3.83;;;1.80;;
79401;SDS011;68857;47.916;106.940;2023-04-25T04:41:06;5.88;;;1.33;;
79401;SDS011;68857;47.916;106.940;2023-04-25T04:43:32;6.00;;;1.80;;
79401;SDS011;68857;47.916;106.940;2023-04-25T04:46:02;3.28;;;1.20;;
79401;SDS011;68857;47.916;106.940;2023-04-25T04:48:30;3.42;;;1.27;;
79401;SDS011;68857;47.916;106.940;2023-04-25T04:51:00;3.03;;;1.65;;
79401;SDS011;68857;47.916;106.940;2023-04-25T04:53:26;4.63;;;1.05;;
79401;SDS011;68857;47.916;106.940;2023-04-25T04:55:53;3.58;;;2.20;;
79401;SDS011;68857;47.916;106.940;2023-04-25T04:58:20;4.57;;;1.48;;
79401;SDS011;68857;47.916;106.940;2023-04-25T05:00:46;4.45;;;1.02;;
79401;SDS011;68857;47.916;106.940;2023-04-25T05:03:13;6.60;;;1.77;;
79401;SDS011;68857;47.916;106.940;2023-04-25T05:05:40;4.47;;;1.45;;
79401;SDS011;68857;47.916;106.940;2023-04-25T05:08:07;2.58;;;1.60;;
79401;SDS011;68857;47.916;106.940;2023-04-25T05:10:34;3.45;;;1.48;;
79401;SDS011;68857;47.916;106.940;2023-04-25T05:13:00;3.53;;;1.27;;
79401;SDS011;68857;47.916;106.940;2023-04-25T05:15:28;3.10;;;0.93;;
79401;SDS011;68857;47.916;106.940;2023-04-25T05:17:55;3.38;;;1.05;;
79401;SDS011;68857;47.916;106.940;2023-04-25T05:20:21;3.85;;;1.30;;
79401;SDS011;68857;47.916;106.940;2023-04-25T05:22:48;4.47;;;1.30;;
79401;SDS011;68857;47.916;106.940;2023-04-25T05:25:14;1.50;;;1.02;;
79401;SDS011;68857;47.916;106.940;2023-04-25T05:27:41;3.50;;;1.15;;
79401;SDS011;68857;47.916;106.940;2023-04-25T05:30:07;5.38;;;1.77;;
79401;SDS011;68857;47.916;106.940;2023-04-25T05:32:34;3.20;;;1.60;;
79401;SDS011;68857;47.916;106.940;2023-04-25T05:35:02;2.55;;;2.03;;
79401;SDS011;68857;47.916;106.940;2023-04-25T05:37:28;3.05;;;1.05;;
79401;SDS011;68857;47.916;106.940;2023-04-25T05:39:56;3.17;;;1.13;;
79401;SDS011;68857;47.916;106.940;2023-04-25T05:42:22;3.80;;;1.33;;
79401;SDS011;68857;47.916;106.940;2023-04-25T05:44:49;3.15;;;1.23;;
79401;SDS011;68857;47.916;106.940;2023-04-25T05:47:15;5.75;;;1.30;;
79401;SDS011;68857;47.916;106.940;2023-04-25T05:49:42;1.92;;;1.25;;
79401;SDS011;68857;47.916;106.940;2023-04-25T05:52:09;2.35;;;1.05;;
79401;SDS011;68857;47.916;106.940;2023-04-25T05:54:35;2.10;;;1.05;;
79401;SDS011;68857;47.916;106.940;2023-04-25T05:57:02;3.70;;;2.00;;
79401;SDS011;68857;47.916;106.940;2023-04-25T05:59:29;1.77;;;1.10;;
79401;SDS011;68857;47.916;106.940;2023-04-25T06:01:55;4.07;;;1.58;;
79401;SDS011;68857;47.916;106.940;2023-04-25T06:04:22;2.65;;;1.10;;
79401;SDS011;68857;47.916;106.940;2023-04-25T06:06:48;2.15;;;0.88;;
79401;SDS011;68857;47.916;106.940;2023-04-25T06:09:15;1.75;;;1.20;;
79401;SDS011;68857;47.916;106.940;2023-04-25T06:11:42;2.63;;;1.13;;
79401;SDS011;68857;47.916;106.940;2023-04-25T06:14:08;4.57;;;1.40;;
79401;SDS011;68857;47.916;106.940;2023-04-25T06:16:35;3.30;;;1.77;;
79401;SDS011;68857;47.916;106.940;2023-04-25T06:19:02;3.00;;;1.35;;
79401;SDS011;68857;47.916;106.940;2023-04-25T06:21:28;1.67;;;0.93;;
79401;SDS011;68857;47.916;106.940;2023-04-25T06:23:55;3.67;;;1.40;;
79401;SDS011;68857;47.916;106.940;2023-04-25T06:26:22;3.05;;;1.73;;
79401;SDS011;68857;47.916;106.940;2023-04-25T06:28:48;3.95;;;1.13;;
79401;SDS011;68857;47.916;106.940;2023-04-25T06:31:15;3.95;;;1.30;;
79401;SDS011;68857;47.916;106.940;2023-04-25T06:33:42;2.50;;;1.85;;
79401;SDS011;68857;47.916;106.940;2023-04-25T06:36:08;2.60;;;0.93;;
79401;SDS011;68857;47.916;106.940;2023-04-25T06:38:35;5.18;;;1.20;;
79401;SDS011;68857;47.916;106.940;2023-04-25T06:41:02;3.25;;;2.83;;
79401;SDS011;68857;47.916;106.940;2023-04-25T06:43:28;1.80;;;1.25;;
79401;SDS011;68857;47.916;106.940;2023-04-25T06:45:58;6.13;;;1.20;;
79401;SDS011;68857;47.916;106.940;2023-04-25T06:48:26;1.95;;;0.88;;
79401;SDS011;68857;47.916;106.940;2023-04-25T06:50:52;3.58;;;1.02;;
79401;SDS011;68857;47.916;106.940;2023-04-25T06:53:19;2.67;;;1.73;;
79401;SDS011;68857;47.916;106.940;2023-04-25T06:55:45;3.75;;;1.60;;
79401;SDS011;68857;47.916;106.940;2023-04-25T06:58:12;3.92;;;2.05;;
79401;SDS011;68857;47.916;106.940;2023-04-25T07:00:38;4.70;;;1.10;;
79401;SDS011;68857;47.916;106.940;2023-04-25T07:03:05;3.83;;;1.25;;
79401;SDS011;68857;47.916;106.940;2023-04-25T07:05:31;5.00;;;1.55;;
79401;SDS011;68857;47.916;106.940;2023-04-25T07:07:58;4.28;;;1.17;;
79401;SDS011;68857;47.916;106.940;2023-04-25T07:10:25;6.03;;;1.02;;
79401;SDS011;68857;47.916;106.940;2023-04-25T07:12:52;5.22;;;1.25;;
79401;SDS011;68857;47.916;106.940;2023-04-25T07:15:18;3.45;;;1.73;;
79401;SDS011;68857;47.916;106.940;2023-04-25T07:17:44;1.52;;;1.00;;
79401;SDS011;68857;47.916;106.940;2023-04-25T07:20:11;4.47;;;1.33;;
79401;SDS011;68857;47.916;106.940;2023-04-25T07:22:38;3.25;;;1.52;;
79401;SDS011;68857;47.916;106.940;2023-04-25T07:25:05;3.50;;;1.15;;
79401;SDS011;68857;47.916;106.940;2023-04-25T07:27:31;3.05;;;1.60;;
79401;SDS011;68857;47.916;106.940;2023-04-25T07:29:58;1.98;;;1.00;;
79401;SDS011;68857;47.916;106.940;2023-04-25T07:32:25;3.00;;;0.95;;
79401;SDS011;68857;47.916;106.940;2023-04-25T07:34:52;3.70;;;1.02;;
79401;SDS011;68857;47.916;106.940;2023-04-25T07:37:18;4.28;;;1.20;;
79401;SDS011;68857;47.916;106.940;2023-04-25T07:39:45;5.20;;;1.52;;
79401;SDS011;68857;47.916;106.940;2023-04-25T07:42:12;4.70;;;1.88;;
79401;SDS011;68857;47.916;106.940;2023-04-25T07:44:39;3.58;;;0.93;;
79401;SDS011;68857;47.916;106.940;2023-04-25T07:47:06;4.13;;;1.40;;
79401;SDS011;68857;47.916;106.940;2023-04-25T07:49:33;4.70;;;1.45;;
79401;SDS011;68857;47.916;106.940;2023-04-25T07:52:01;4.72;;;1.92;;
79401;SDS011;68857;47.916;106.940;2023-04-25T07:54:27;3.85;;;1.88;;
79401;SDS011;68857;47.916;106.940;2023-04-25T07:56:55;3.75;;;1.88;;
79401;SDS011;68857;47.916;106.940;2023-04-25T07:59:21;3.42;;;2.45;;
79401;SDS011;68857;47.916;106.940;2023-04-25T08:01:48;3.75;;;1.23;;
79401;SDS011;68857;47.916;106.940;2023-04-25T08:04:15;4.25;;;1.75;;
79401;SDS011;68857;47.916;106.940;2023-04-25T08:06:42;3.60;;;1.00;;
79401;SDS011;68857;47.916;106.940;2023-04-25T08:09:09;1.90;;;1.15;;
79401;SDS011;68857;47.916;106.940;2023-04-25T08:11:36;5.32;;;1.60;;
79401;SDS011;68857;47.916;106.940;2023-04-25T08:14:03;3.50;;;1.58;;
79401;SDS011;68857;47.916;106.940;2023-04-25T08:16:29;2.80;;;1.20;;
79401;SDS011;68857;47.916;106.940;2023-04-25T08:18:56;5.13;;;1.40;;
79401;SDS011;68857;47.916;106.940;2023-04-25T08:21:23;4.45;;;1.08;;
79401;SDS011;68857;47.916;106.940;2023-04-25T08:23:49;5.20;;;2.03;;
79401;SDS011;68857;47.916;106.940;2023-04-25T08:26:16;3.58;;;1.58;;
79401;SDS011;68857;47.916;106.940;2023-04-25T08:28:42;6.15;;;2.25;;
79401;SDS011;68857;47.916;106.940;2023-04-25T08:31:09;4.75;;;1.25;;
79401;SDS011;68857;47.916;106.940;2023-04-25T08:33:35;2.42;;;1.42;;
79401;SDS011;68857;47.916;106.940;2023-04-25T08:36:02;4.03;;;1.15;;
79401;SDS011;68857;47.916;106.940;2023-04-25T08:38:29;3.00;;;1.20;;
79401;SDS011;68857;47.916;106.940;2023-04-25T08:40:55;3.25;;;1.13;;
79401;SDS011;68857;47.916;106.940;2023-04-25T08:43:23;3.83;;;2.00;;
79401;SDS011;68857;47.916;106.940;2023-04-25T08:45:49;3.00;;;1.23;;
79401;SDS011;68857;47.916;106.940;2023-04-25T08:48:19;4.30;;;1.30;;
79401;SDS011;68857;47.916;106.940;2023-04-25T08:50:49;3.35;;;1.42;;
79401;SDS011;68857;47.916;106.940;2023-04-25T08:53:16;5.03;;;1.50;;
79401;SDS011;68857;47.916;106.940;2023-04-25T08:55:45;5.22;;;1.70;;
79401;SDS011;68857;47.916;106.940;2023-04-25T08:58:12;2.72;;;1.40;;
79401;SDS011;68857;47.916;106.940;2023-04-25T09:00:39;5.70;;;1.88;;
79401;SDS011;68857;47.916;106.940;2023-04-25T09:03:06;5.90;;;1.63;;
79401;SDS011;68857;47.916;106.940;2023-04-25T09:05:33;7.28;;;1.42;;
79401;SDS011;68857;47.916;106.940;2023-04-25T09:08:01;5.05;;;1.75;;
79401;SDS011;68857;47.916;106.940;2023-04-25T09:10:27;4.30;;;1.00;;
79401;SDS011;68857;47.916;106.940;2023-04-25T09:13:05;3.15;;;1.13;;
79401;SDS011;68857;47.916;106.940;2023-04-25T09:15:32;6.20;;;1.70;;
79401;SDS011;68857;47.916;106.940;2023-04-25T09:17:59;3.20;;;1.52;;
79401;SDS011;68857;47.916;106.940;2023-04-25T09:20:25;2.22;;;1.02;;
79401;SDS011;68857;47.916;106.940;2023-04-25T09:23:02;6.53;;;2.00;;
79401;SDS011;68857;47.916;106.940;2023-04-25T09:25:28;4.75;;;1.60;;
79401;SDS011;68857;47.916;106.940;2023-04-25T09:28:03;4.25;;;1.77;;
79401;SDS011;68857;47.916;106.940;2023-04-25T09:30:30;2.58;;;1.52;;
79401;SDS011;68857;47.916;106.940;2023-04-25T09:32:59;4.82;;;1.83;;
79401;SDS011;68857;47.916;106.940;2023-04-25T09:35:35;2.05;;;1.08;;
79401;SDS011;68857;47.916;106.940;2023-04-25T09:38:07;3.03;;;1.27;;
79401;SDS011;68857;47.916;106.940;2023-04-25T09:40:33;6.05;;;1.58;;
79401;SDS011;68857;47.916;106.940;2023-04-25T09:43:00;2.88;;;1.35;;
79401;SDS011;68857;47.916;106.940;2023-04-25T09:45:29;5.82;;;1.38;;
79401;SDS011;68857;47.916;106.940;2023-04-25T09:47:56;2.53;;;0.95;;
79401;SDS011;68857;47.916;106.940;2023-04-25T09:50:23;2.88;;;1.38;;
79401;SDS011;68857;47.916;106.940;2023-04-25T09:53:11;5.00;;;2.00;;
79401;SDS011;68857;47.916;106.940;2023-04-25T09:55:36;5.10;;;2.45;;
79401;SDS011;68857;47.916;106.940;2023-04-25T09:58:05;2.83;;;1.30;;
79401;SDS011;68857;47.916;106.940;2023-04-25T10:00:32;9.25;;;2.55;;
79401;SDS011;68857;47.916;106.940;2023-04-25T10:03:00;7.40;;;1.88;;
79401;SDS011;68857;47.916;106.940;2023-04-25T10:05:32;7.05;;;1.80;;
79401;SDS011;68857;47.916;106.940;2023-04-25T10:07:59;7.38;;;2.33;;
79401;SDS011;68857;47.916;106.940;2023-04-25T10:10:29;5.38;;;1.60;;
79401;SDS011;68857;47.916;106.940;2023-04-25T10:15:27;9.82;;;1.85;;
79401;SDS011;68857;47.916;106.940;2023-04-25T10:17:53;7.60;;;2.15;;
79401;SDS011;68857;47.916;106.940;2023-04-25T10:20:20;4.13;;;2.15;;
79401;SDS011;68857;47.916;106.940;2023-04-25T10:22:47;4.95;;;1.90;;
79401;SDS011;68857;47.916;106.940;2023-04-25T10:25:19;5.65;;;3.08;;
79401;SDS011;68857;47.916;106.940;2023-04-25T10:27:45;7.35;;;1.70;;
79401;SDS011;68857;47.916;106.940;2023-04-25T10:30:15;8.07;;;2.67;;
79401;SDS011;68857;47.916;106.940;2023-04-25T10:32:43;6.55;;;2.05;;
79401;SDS011;68857;47.916;106.940;2023-04-25T10:35:16;4.88;;;1.75;;
79401;SDS011;68857;47.916;106.940;2023-04-25T10:40:38;6.53;;;2.20;;
79401;SDS011;68857;47.916;106.940;2023-04-25T10:44:05;7.38;;;3.17;;
79401;SDS011;68857;47.916;106.940;2023-04-25T10:46:01;6.75;;;2.08;;
79401;SDS011;68857;47.916;106.940;2023-04-25T10:48:29;6.45;;;2.90;;
79401;SDS011;68857;47.916;106.940;2023-04-25T10:51:08;5.38;;;2.10;;
79401;SDS011;68857;47.916;106.940;2023-04-25T10:53:35;5.30;;;2.45;;
79401;SDS011;68857;47.916;106.940;2023-04-25T10:56:17;6.05;;;2.58;;
79401;SDS011;68857;47.916;106.940;2023-04-25T10:58:45;6.10;;;3.47;;
79401;SDS011;68857;47.916;106.940;2023-04-25T11:01:13;6.75;;;2.65;;
79401;SDS011;68857;47.916;106.940;2023-04-25T11:03:42;5.85;;;2.10;;
79401;SDS011;68857;47.916;106.940;2023-04-25T11:06:57;10.52;;;3.60;;
79401;SDS011;68857;47.916;106.940;2023-04-25T11:08:57;7.18;;;3.03;;
79401;SDS011;68857;47.916;106.940;2023-04-25T11:11:23;10.05;;;3.38;;
79401;SDS011;68857;47.916;106.940;2023-04-25T11:13:50;5.78;;;3.05;;
79401;SDS011;68857;47.916;106.940;2023-04-25T11:16:16;16.48;;;4.15;;
79401;SDS011;68857;47.916;106.940;2023-04-25T11:18:43;7.88;;;3.63;;
79401;SDS011;68857;47.916;106.940;2023-04-25T11:21:11;8.48;;;3.50;;
79401;SDS011;68857;47.916;106.940;2023-04-25T11:23:37;7.22;;;3.22;;
79401;SDS011;68857;47.916;106.940;2023-04-25T11:26:04;8.00;;;3.08;;
79401;SDS011;68857;47.916;106.940;2023-04-25T11:28:30;7.30;;;3.33;;
79401;SDS011;68857;47.916;106.940;2023-04-25T11:30:57;8.95;;;4.18;;
79401;SDS011;68857;47.916;106.940;2023-04-25T11:33:24;9.38;;;4.40;;
79401;SDS011;68857;47.916;106.940;2023-04-25T11:35:53;8.35;;;3.60;;
79401;SDS011;68857;47.916;106.940;2023-04-25T11:38:20;9.23;;;4.15;;
79401;SDS011;68857;47.916;106.940;2023-04-25T11:40:54;7.78;;;4.20;;
79401;SDS011;68857;47.916;106.940;2023-04-25T11:43:21;8.90;;;3.65;;
79401;SDS011;68857;47.916;106.940;2023-04-25T11:45:48;9.68;;;4.05;;
79401;SDS011;68857;47.916;106.940;2023-04-25T11:48:18;7.78;;;3.53;;
79401;SDS011;68857;47.916;106.940;2023-04-25T11:50:45;9.65;;;4.03;;
79401;SDS011;68857;47.916;106.940;2023-04-25T11:53:12;8.45;;;4.43;;
79401;SDS011;68857;47.916;106.940;2023-04-25T11:55:38;8.25;;;4.13;;
79401;SDS011;68857;47.916;106.940;2023-04-25T11:58:05;8.27;;;4.00;;
79401;SDS011;68857;47.916;106.940;2023-04-25T12:00:32;9.73;;;3.70;;
79401;SDS011;68857;47.916;106.940;2023-04-25T12:02:58;9.35;;;3.72;;
79401;SDS011;68857;47.916;106.940;2023-04-25T12:05:28;9.05;;;3.97;;
79401;SDS011;68857;47.916;106.940;2023-04-25T12:07:55;7.15;;;4.00;;
79401;SDS011;68857;47.916;106.940;2023-04-25T12:10:23;7.07;;;3.42;;
79401;SDS011;68857;47.916;106.940;2023-04-25T12:12:51;7.70;;;3.55;;
79401;SDS011;68857;47.916;106.940;2023-04-25T12:15:18;10.63;;;4.00;;
79401;SDS011;68857;47.916;106.940;2023-04-25T12:17:45;8.27;;;5.10;;
79401;SDS011;68857;47.916;106.940;2023-04-25T12:20:13;8.25;;;5.18;;
79401;SDS011;68857;47.916;106.940;2023-04-25T12:22:41;7.28;;;4.13;;
79401;SDS011;68857;47.916;106.940;2023-04-25T12:25:11;8.23;;;3.75;;
79401;SDS011;68857;47.916;106.940;2023-04-25T12:27:38;9.38;;;5.28;;
79401;SDS011;68857;47.916;106.940;2023-04-25T12:30:07;8.82;;;3.70;;
79401;SDS011;68857;47.916;106.940;2023-04-25T12:32:36;9.80;;;3.90;;
79401;SDS011;68857;47.916;106.940;2023-04-25T12:35:04;9.88;;;4.15;;
79401;SDS011;68857;47.916;106.940;2023-04-25T12:37:31;9.15;;;4.10;;
79401;SDS011;68857;47.916;106.940;2023-04-25T12:39:58;8.50;;;5.20;;
79401;SDS011;68857;47.916;106.940;2023-04-25T12:42:25;9.73;;;4.72;;
79401;SDS011;68857;47.916;106.940;2023-04-25T12:44:51;9.02;;;4.35;;
79401;SDS011;68857;47.916;106.940;2023-04-25T12:47:18;13.02;;;4.50;;
79401;SDS011;68857;47.916;106.940;2023-04-25T12:49:45;9.25;;;4.13;;
79401;SDS011;68857;47.916;106.940;2023-04-25T12:52:11;9.10;;;4.40;;
79401;SDS011;68857;47.916;106.940;2023-04-25T12:54:37;11.48;;;5.15;;
79401;SDS011;68857;47.916;106.940;2023-04-25T12:57:04;10.32;;;4.57;;
79401;SDS011;68857;47.916;106.940;2023-04-25T12:59:30;9.00;;;4.57;;
79401;SDS011;68857;47.916;106.940;2023-04-25T13:01:57;11.27;;;4.82;;
79401;SDS011;68857;47.916;106.940;2023-04-25T13:04:24;10.13;;;4.68;;
79401;SDS011;68857;47.916;106.940;2023-04-25T13:06:50;9.70;;;5.00;;
79401;SDS011;68857;47.916;106.940;2023-04-25T13:09:17;10.30;;;4.72;;
79401;SDS011;68857;47.916;106.940;2023-04-25T13:11:44;9.50;;;4.97;;
79401;SDS011;68857;47.916;106.940;2023-04-25T13:14:11;9.32;;;4.97;;
79401;SDS011;68857;47.916;106.940;2023-04-25T13:16:38;12.70;;;5.22;;
79401;SDS011;68857;47.916;106.940;2023-04-25T13:19:06;12.00;;;5.05;;
79401;SDS011;68857;47.916;106.940;2023-04-25T13:21:36;12.00;;;5.18;;
79401;SDS011;68857;47.916;106.940;2023-04-25T13:24:03;10.98;;;4.85;;
79401;SDS011;68857;47.916;106.940;2023-04-25T13:26:29;12.27;;;5.45;;
79401;SDS011;68857;47.916;106.940;2023-04-25T13:28:56;12.52;;;5.00;;
79401;SDS011;68857;47.916;106.940;2023-04-25T13:31:23;13.27;;;5.38;;
79401;SDS011;68857;47.916;106.940;2023-04-25T13:33:49;10.23;;;4.50;;
79401;SDS011;68857;47.916;106.940;2023-04-25T13:36:16;13.52;;;4.78;;
79401;SDS011;68857;47.916;106.940;2023-04-25T13:38:43;9.00;;;4.60;;
79401;SDS011;68857;47.916;106.940;2023-04-25T13:41:12;12.05;;;4.45;;
79401;SDS011;68857;47.916;106.940;2023-04-25T13:43:43;8.30;;;4.03;;
79401;SDS011;68857;47.916;106.940;2023-04-25T13:46:10;9.13;;;4.63;;
79401;SDS011;68857;47.916;106.940;2023-04-25T13:48:38;8.88;;;4.22;;
79401;SDS011;68857;47.916;106.940;2023-04-25T13:51:11;10.88;;;4.47;;
79401;SDS011;68857;47.916;106.940;2023-04-25T13:53:38;10.20;;;4.60;;
79401;SDS011;68857;47.916;106.940;2023-04-25T13:56:05;8.95;;;4.00;;
79401;SDS011;68857;47.916;106.940;2023-04-25T13:58:32;10.35;;;4.60;;
79401;SDS011;68857;47.916;106.940;2023-04-25T14:00:58;11.55;;;5.13;;
79401;SDS011;68857;47.916;106.940;2023-04-25T14:03:25;9.35;;;4.57;;
79401;SDS011;68857;47.916;106.940;2023-04-25T14:05:51;11.25;;;4.20;;
79401;SDS011;68857;47.916;106.940;2023-04-25T14:08:18;9.65;;;4.75;;
79401;SDS011;68857;47.916;106.940;2023-04-25T14:10:45;11.70;;;6.05;;
79401;SDS011;68857;47.916;106.940;2023-04-25T14:13:11;11.15;;;5.20;;
79401;SDS011;68857;47.916;106.940;2023-04-25T14:15:38;13.07;;;7.82;;
79401;SDS011;68857;47.916;106.940;2023-04-25T14:18:04;16.15;;;7.40;;
79401;SDS011;68857;47.916;106.940;2023-04-25T14:20:31;14.98;;;7.00;;
79401;SDS011;68857;47.916;106.940;2023-04-25T14:22:57;17.75;;;8.43;;